createdAt,value
2023-02-13T00:01:19.126Z,63.90
2023-02-13T00:03:20.778Z,66.25
2023-02-13T00:05:22.397Z,64.25
2023-02-13T00:07:23.976Z,63.80
2023-02-13T00:09:25.636Z,63.47
2023-02-13T00:11:27.293Z,66.85
2023-02-13T00:13:28.952Z,62.95
2023-02-13T00:15:30.612Z,65.90
2023-02-13T00:17:32.667Z,65.60
2023-02-13T00:19:34.201Z,63.90
2023-02-13T00:21:35.859Z,60.85
2023-02-13T00:23:38.535Z,67.20
2023-02-13T00:25:40.152Z,62.30
2023-02-13T00:27:41.747Z,65.57
2023-02-13T00:29:43.508Z,59.10
2023-02-13T00:31:45.267Z,65.78
2023-02-13T00:33:47.300Z,63.83
2023-02-13T00:35:48.915Z,59.65
2023-02-13T00:37:50.584Z,59.00
2023-02-13T00:39:52.518Z,66.85
2023-02-13T00:41:54.209Z,68.30
2023-02-13T00:43:55.834Z,66.97
2023-02-13T00:45:58.998Z,59.10
2023-02-13T00:48:00.656Z,62.35
2023-02-13T00:50:02.275Z,62.25
2023-02-13T00:52:04.068Z,60.17
2023-02-13T00:54:05.794Z,61.40
2023-02-13T00:56:07.739Z,58.17
2023-02-13T00:58:09.378Z,62.95
2023-02-13T01:00:11.605Z,65.10
2023-02-13T01:02:13.316Z,62.58
2023-02-13T01:04:14.946Z,59.65
2023-02-13T01:06:16.615Z,62.70
2023-02-13T01:08:20.198Z,64.90
2023-02-13T01:10:21.827Z,63.00
2023-02-13T01:12:23.665Z,62.45
2023-02-13T01:14:25.299Z,59.05
2023-02-13T01:16:26.905Z,59.35
2023-02-13T01:18:28.660Z,59.42
2023-02-13T01:20:30.741Z,64.13
2023-02-13T01:22:32.312Z,62.17
2023-02-13T01:24:34.268Z,64.40
2023-02-13T01:26:36.095Z,69.68
2023-02-13T01:28:37.858Z,71.15
2023-02-13T01:30:39.591Z,63.55
2023-02-13T01:32:42.178Z,66.03
2023-02-13T01:34:43.775Z,65.95
2023-02-13T01:36:45.323Z,60.42
2023-02-13T01:38:46.965Z,68.18
2023-02-13T01:40:50.370Z,68.28
2023-02-13T01:42:52.086Z,66.68
2023-02-13T01:45:02.705Z,65.38
2023-02-13T01:47:04.337Z,68.47
2023-02-13T01:49:19.290Z,63.45
2023-02-13T01:51:25.517Z,66.90
2023-02-13T01:53:53.742Z,67.60
2023-02-13T01:56:02.410Z,61.55
2023-02-13T01:58:10.311Z,66.53
2023-02-13T02:00:17.012Z,63.03
2023-02-13T02:02:19.817Z,65.65
2023-02-13T02:04:36.148Z,67.38
2023-02-13T02:06:42.113Z,71.20
2023-02-13T02:08:44.182Z,71.60
2023-02-13T02:10:45.943Z,70.38
2023-02-13T02:13:18.738Z,69.72
2023-02-13T02:15:21.411Z,68.30
2023-02-13T02:17:25.106Z,66.22
2023-02-13T02:19:49.685Z,65.05
2023-02-13T02:22:03.216Z,77.80
2023-02-13T02:24:13.626Z,70.82
2023-02-13T02:26:53.128Z,64.55
2023-02-13T02:29:24.218Z,73.68
2023-02-13T02:32:03.756Z,67.65
2023-02-13T02:34:23.824Z,65.70
2023-02-13T02:36:37.215Z,65.93
2023-02-13T02:39:05.240Z,67.83
2023-02-13T02:41:42.338Z,71.57
2023-02-13T02:43:55.308Z,61.88
2023-02-13T02:46:32.594Z,70.75
2023-02-13T02:49:14.652Z,67.53
2023-02-13T02:51:23.897Z,70.38
2023-02-13T02:53:40.376Z,65.75
2023-02-13T02:55:50.789Z,68.22
2023-02-13T02:58:23.868Z,67.97
2023-02-13T03:00:45.087Z,65.38
2023-02-13T03:03:25.222Z,70.22
2023-02-13T03:05:49.856Z,64.88
2023-02-13T03:07:51.483Z,66.55
2023-02-13T03:10:15.866Z,66.28
2023-02-13T03:12:40.380Z,68.47
2023-02-13T03:14:42.746Z,68.75
2023-02-13T03:17:03.132Z,64.47
2023-02-13T03:19:23.887Z,66.88
2023-02-13T03:22:06.830Z,66.00
2023-02-13T03:24:21.974Z,64.40
2023-02-13T03:26:50.283Z,67.82
2023-02-13T03:29:30.072Z,59.33
2023-02-13T03:31:39.265Z,63.95
2023-02-13T03:34:06.590Z,63.22
2023-02-13T03:36:49.550Z,64.50
2023-02-13T03:39:34.032Z,66.38
2023-02-13T03:41:53.003Z,62.95
2023-02-13T03:44:00.490Z,60.30
2023-02-13T03:46:02.612Z,62.38
2023-02-13T03:48:32.251Z,66.78
2023-02-13T03:50:33.867Z,67.30
2023-02-13T03:52:45.118Z,60.45
2023-02-13T03:55:10.573Z,61.85
2023-02-13T03:57:34.131Z,57.58
2023-02-13T03:59:37.119Z,68.95
2023-02-13T04:01:39.417Z,66.03
2023-02-13T04:03:57.714Z,61.53
2023-02-13T04:06:13.215Z,56.28
2023-02-13T04:08:15.090Z,63.38
2023-02-13T04:10:18.188Z,62.90
2023-02-13T04:12:21.769Z,67.33
2023-02-13T04:14:44.310Z,68.55
2023-02-13T04:16:50.227Z,61.50
2023-02-13T04:18:52.466Z,65.55
2023-02-13T04:20:54.167Z,61.90
2023-02-13T04:22:55.882Z,61.10
2023-02-13T04:24:57.482Z,66.97
2023-02-13T04:26:59.399Z,60.83
2023-02-13T04:29:01.165Z,64.43
2023-02-13T04:31:02.857Z,57.40
2023-02-13T04:33:04.694Z,61.13
2023-02-13T04:35:06.591Z,60.55
2023-02-13T04:37:08.587Z,65.68
2023-02-13T04:39:11.529Z,62.03
2023-02-13T04:41:13.181Z,59.13
2023-02-13T04:43:14.830Z,63.40
2023-02-13T04:45:16.960Z,65.25
2023-02-13T04:47:18.615Z,64.38
2023-02-13T04:49:20.273Z,57.90
2023-02-13T04:51:21.982Z,63.80
2023-02-13T04:53:23.715Z,61.95
2023-02-13T04:55:26.879Z,59.45
2023-02-13T04:57:28.508Z,63.47
2023-02-13T04:59:30.125Z,58.67
2023-02-13T05:01:31.833Z,68.20
2023-02-13T05:03:33.483Z,63.35
2023-02-13T05:05:35.873Z,64.40
2023-02-13T05:07:37.524Z,59.42
2023-02-13T05:09:41.411Z,71.50
2023-02-13T05:11:43.355Z,80.05
2023-02-13T05:13:45.035Z,79.82
2023-02-13T05:15:48.242Z,93.53
2023-02-13T05:17:50.306Z,99.18
2023-02-13T05:19:51.871Z,98.53
2023-02-13T05:22:11.759Z,92.30
2023-02-13T05:24:13.412Z,92.75
2023-02-13T05:26:15.105Z,93.43
2023-02-13T05:28:35.684Z,93.00
2023-02-13T05:30:39.341Z,89.53
2023-02-13T05:32:43.290Z,88.10
2023-02-13T05:36:46.795Z,78.78
2023-02-13T05:38:48.418Z,85.78
2023-02-13T05:40:50.017Z,86.28
2023-02-13T05:42:54.193Z,83.25
2023-02-13T05:44:55.741Z,82.15
2023-02-13T05:46:57.425Z,84.15
2023-02-13T05:48:59.092Z,79.10
2023-02-13T05:51:00.898Z,84.60
2023-02-13T05:53:02.490Z,79.55
2023-02-13T05:55:04.542Z,75.90
2023-02-13T05:57:06.108Z,72.53
2023-02-13T05:59:07.694Z,76.28
2023-02-13T06:01:09.308Z,66.45
2023-02-13T06:03:10.946Z,71.93
2023-02-13T06:05:12.595Z,70.57
2023-02-13T06:07:14.230Z,76.03
2023-02-13T06:09:15.858Z,75.32
2023-02-13T06:11:17.726Z,75.57
2023-02-13T06:13:19.394Z,73.60
2023-02-13T06:15:20.968Z,78.70
2023-02-13T06:17:22.624Z,74.97
2023-02-13T06:19:24.281Z,79.80
2023-02-13T06:21:25.990Z,75.32
2023-02-13T06:23:27.877Z,74.78
2023-02-13T06:25:29.580Z,77.63
2023-02-13T06:27:31.362Z,81.25
2023-02-13T06:29:33.152Z,73.72
2023-02-13T06:31:35.089Z,69.95
2023-02-13T06:33:36.754Z,89.63
2023-02-13T06:35:38.336Z,77.90
2023-02-13T06:37:40.140Z,81.30
2023-02-13T06:39:42.862Z,79.93
2023-02-13T06:41:44.497Z,77.22
2023-02-13T06:43:46.343Z,76.90
2023-02-13T06:45:48.052Z,84.03
2023-02-13T06:47:50.269Z,79.65
2023-02-13T06:49:51.952Z,75.78
2023-02-13T06:51:53.611Z,80.88
2023-02-13T06:53:55.219Z,82.63
2023-02-13T06:55:57.718Z,78.22
2023-02-13T06:57:59.347Z,87.88
2023-02-13T07:00:04.584Z,78.30
2023-02-13T07:02:06.281Z,82.90
2023-02-13T07:04:07.948Z,78.68
2023-02-13T07:06:09.633Z,80.97
2023-02-13T07:08:12.565Z,76.18
2023-02-13T07:10:14.904Z,71.65
2023-02-13T07:12:16.482Z,63.80
2023-02-13T07:14:18.146Z,66.70
2023-02-13T07:16:19.760Z,67.90
2023-02-13T07:18:21.405Z,55.33
2023-02-13T07:20:23.468Z,62.97
2023-02-13T07:22:25.180Z,61.88
2023-02-13T07:24:26.805Z,57.58
2023-02-13T07:26:28.486Z,56.60
2023-02-13T07:28:30.581Z,80.93
2023-02-13T07:30:33.459Z,76.97
2023-02-13T07:32:35.172Z,84.00
2023-02-13T07:34:36.745Z,81.63
2023-02-13T07:36:38.301Z,86.55
2023-02-13T07:38:39.950Z,86.00
2023-02-13T07:40:41.701Z,65.85
2023-02-13T07:42:43.283Z,85.55
2023-02-13T07:44:44.877Z,71.38
2023-02-13T07:46:46.579Z,66.93
2023-02-13T07:48:48.300Z,74.85
2023-02-13T07:50:50.341Z,74.25
2023-02-13T07:52:55.580Z,61.05
2023-02-13T07:54:57.174Z,59.65
2023-02-13T07:56:59.541Z,74.15
2023-02-13T07:59:01.217Z,57.50
2023-02-13T08:01:07.718Z,56.20
2023-02-13T08:03:09.757Z,57.05
2023-02-13T08:05:11.368Z,59.08
2023-02-13T08:07:14.320Z,60.22
2023-02-13T08:09:40.770Z,67.87
2023-02-13T08:11:54.785Z,58.35
2023-02-13T08:13:56.389Z,57.65
2023-02-13T08:15:58.499Z,59.38
2023-02-13T08:18:00.380Z,57.25
2023-02-13T08:20:02.068Z,57.85
2023-02-13T08:22:04.051Z,53.22
2023-02-13T08:24:05.861Z,60.90
2023-02-13T08:26:07.553Z,60.00
2023-02-13T08:28:09.317Z,62.38
2023-02-13T08:30:11.570Z,63.72
2023-02-13T08:32:13.331Z,63.40
2023-02-13T08:34:15.012Z,69.80
2023-02-13T08:36:16.727Z,71.97
2023-02-13T08:38:18.418Z,64.75
2023-02-13T08:40:20.226Z,70.05
2023-02-13T08:42:21.800Z,71.07
2023-02-13T08:44:23.356Z,82.43
2023-02-13T08:46:25.138Z,72.22
2023-02-13T08:48:27.458Z,77.88
2023-02-13T08:50:29.084Z,68.22
2023-02-13T08:52:30.793Z,65.93
2023-02-13T08:54:35.404Z,65.45
2023-02-13T08:56:36.989Z,65.70
2023-02-13T08:58:38.749Z,70.80
2023-02-13T09:00:40.324Z,69.72
2023-02-13T09:02:41.908Z,77.07
2023-02-13T09:04:43.602Z,70.70
2023-02-13T09:06:45.439Z,68.72
2023-02-13T09:08:47.052Z,69.93
2023-02-13T09:10:56.715Z,68.25
2023-02-13T09:12:58.572Z,68.50
2023-02-13T09:15:00.169Z,74.07
2023-02-13T09:17:03.286Z,76.22
2023-02-13T09:19:05.208Z,67.80
2023-02-13T09:21:09.525Z,70.53
2023-02-13T09:23:11.183Z,67.55
2023-02-13T09:25:12.767Z,75.30
2023-02-13T09:27:14.387Z,71.60
2023-02-13T09:29:15.953Z,65.25
2023-02-13T09:31:20.393Z,67.88
2023-02-13T09:33:22.180Z,64.95
2023-02-13T09:35:24.365Z,62.95
2023-02-13T09:37:27.114Z,59.95
2023-02-13T09:39:29.154Z,63.97
2023-02-13T09:41:42.172Z,69.00
2023-02-13T09:43:54.907Z,64.38
2023-02-13T09:46:01.554Z,72.93
2023-02-13T09:48:04.973Z,65.95
2023-02-13T09:50:17.122Z,65.68
2023-02-13T09:52:18.941Z,67.80
2023-02-13T09:54:20.730Z,68.72
2023-02-13T09:56:40.482Z,64.97
2023-02-13T09:58:46.334Z,64.25
2023-02-13T10:00:58.046Z,66.75
2023-02-13T10:02:59.650Z,66.03
2023-02-13T10:05:17.215Z,68.55
2023-02-13T10:07:39.870Z,62.33
2023-02-13T10:10:02.339Z,65.75
2023-02-13T10:12:23.050Z,67.15
2023-02-13T10:14:32.766Z,56.38
2023-02-13T10:16:53.312Z,60.33
2023-02-13T10:18:59.925Z,63.60
2023-02-13T10:21:03.051Z,65.38
2023-02-13T10:23:29.439Z,57.08
2023-02-13T10:25:42.764Z,54.80
2023-02-13T10:27:50.128Z,57.05
2023-02-13T10:30:05.721Z,52.45
2023-02-13T10:32:13.831Z,51.50
2023-02-13T10:34:17.288Z,51.58
2023-02-13T10:36:31.713Z,58.28
2023-02-13T10:40:40.766Z,58.15
2023-02-13T10:42:42.349Z,59.00
2023-02-13T10:44:55.450Z,52.67
2023-02-13T10:46:59.638Z,55.75
2023-02-13T10:49:10.992Z,54.58
2023-02-13T10:51:30.730Z,53.13
2023-02-13T10:53:47.573Z,54.67
2023-02-13T10:55:55.429Z,48.72
2023-02-13T10:58:28.120Z,55.67
2023-02-13T11:00:43.170Z,52.53
2023-02-13T11:02:45.064Z,51.78
2023-02-13T11:04:46.964Z,56.30
2023-02-13T11:06:59.555Z,47.72
2023-02-13T11:09:01.174Z,52.65
2023-02-13T11:11:02.799Z,52.45
2023-02-13T11:13:22.232Z,45.95
2023-02-13T11:15:28.009Z,43.47
2023-02-13T11:17:36.443Z,41.05
2023-02-13T11:19:40.739Z,48.38
2023-02-13T11:21:42.430Z,41.42
2023-02-13T11:23:53.803Z,44.50
2023-02-13T11:26:00.871Z,41.50
2023-02-13T11:28:11.530Z,44.47
2023-02-13T11:30:46.730Z,37.47
2023-02-13T11:32:59.473Z,35.35
2023-02-13T11:35:27.026Z,40.35
2023-02-13T11:37:30.332Z,33.60
2023-02-13T11:39:31.910Z,35.42
2023-02-13T11:41:44.036Z,35.33
2023-02-13T11:43:51.868Z,39.28
2023-02-13T11:46:09.450Z,38.38
2023-02-13T11:48:21.896Z,35.50
2023-02-13T11:50:32.365Z,31.15
2023-02-13T11:52:35.689Z,38.97
2023-02-13T11:54:41.182Z,37.15
2023-02-13T11:57:04.041Z,38.67
2023-02-13T11:59:13.260Z,37.97
2023-02-13T12:01:20.963Z,35.10
2023-02-13T12:03:22.664Z,32.28
2023-02-13T12:05:26.993Z,31.45
2023-02-13T12:07:30.657Z,25.80
2023-02-13T12:09:32.498Z,32.70
2023-02-13T12:11:46.035Z,29.17
2023-02-13T12:13:48.309Z,26.23
2023-02-13T12:15:58.072Z,30.52
2023-02-13T12:18:09.010Z,28.88
2023-02-13T12:20:15.704Z,29.20
2023-02-13T12:22:28.944Z,31.33
2023-02-13T12:24:41.618Z,27.48
2023-02-13T12:26:46.774Z,27.33
2023-02-13T12:29:09.016Z,29.20
2023-02-13T12:31:19.819Z,26.95
2023-02-13T12:33:36.235Z,29.15
2023-02-13T12:35:50.220Z,31.80
2023-02-13T12:38:05.168Z,26.20
2023-02-13T12:40:30.644Z,27.27
2023-02-13T12:42:41.400Z,29.90
2023-02-13T12:45:03.456Z,29.13
2023-02-13T12:47:17.239Z,27.77
2023-02-13T12:49:44.229Z,24.80
2023-02-13T12:51:51.671Z,27.13
2023-02-13T12:54:02.762Z,25.33
2023-02-13T12:56:19.222Z,23.88
2023-02-13T12:59:07.706Z,27.08
2023-02-13T13:01:27.940Z,27.30
2023-02-13T13:03:48.010Z,25.60
2023-02-13T13:06:12.363Z,22.15
2023-02-13T13:08:29.145Z,25.15
2023-02-13T13:10:36.557Z,28.55
2023-02-13T13:13:02.958Z,28.02
2023-02-13T13:15:17.329Z,23.63
2023-02-13T13:17:43.065Z,23.23
2023-02-13T13:19:45.120Z,26.25
2023-02-13T13:22:11.177Z,29.45
2023-02-13T13:24:29.665Z,23.98
2023-02-13T13:26:37.436Z,38.85
2023-02-13T13:28:42.162Z,30.58
2023-02-13T13:30:44.188Z,26.90
2023-02-13T13:32:46.478Z,22.30
2023-02-13T13:34:48.296Z,28.35
2023-02-13T13:37:11.978Z,21.83
2023-02-13T13:39:31.841Z,24.67
2023-02-13T13:42:11.224Z,22.48
2023-02-13T13:44:26.357Z,24.70
2023-02-13T13:46:46.831Z,24.75
2023-02-13T13:49:15.390Z,23.13
2023-02-13T13:51:18.043Z,25.85
2023-02-13T13:53:23.384Z,27.33
2023-02-13T13:55:47.913Z,23.75
2023-02-13T13:58:00.120Z,22.33
2023-02-13T14:00:26.739Z,22.13
2023-02-13T14:02:38.870Z,22.90
2023-02-13T14:04:43.768Z,30.70
2023-02-13T14:06:45.523Z,29.67
2023-02-13T14:08:54.324Z,25.10
2023-02-13T14:11:02.103Z,23.25
2023-02-13T14:13:04.235Z,25.17
2023-02-13T14:15:06.175Z,25.02
2023-02-13T14:17:14.155Z,25.38
2023-02-13T14:19:33.650Z,28.60
2023-02-13T14:21:35.455Z,29.98
2023-02-13T14:23:42.936Z,32.13
2023-02-13T14:25:45.517Z,26.85
2023-02-13T14:28:02.261Z,25.88
2023-02-13T14:30:05.774Z,30.83
2023-02-13T14:32:16.411Z,31.30
2023-02-13T14:34:23.140Z,29.63
2023-02-13T14:36:32.301Z,24.17
2023-02-13T14:38:34.375Z,25.27
2023-02-13T14:40:48.004Z,27.33
2023-02-13T14:43:00.138Z,24.60
2023-02-13T14:45:04.971Z,24.75
2023-02-13T14:47:32.081Z,29.33
2023-02-13T14:49:36.968Z,27.70
2023-02-13T14:51:46.775Z,33.78
2023-02-13T14:53:53.106Z,29.05
2023-02-13T14:56:15.191Z,26.17
2023-02-13T14:58:24.311Z,29.02
2023-02-13T15:00:30.653Z,28.20
2023-02-13T15:02:36.022Z,23.40
2023-02-13T15:04:37.540Z,20.75
2023-02-13T15:06:42.472Z,24.42
2023-02-13T15:08:50.740Z,21.75
2023-02-13T15:10:54.390Z,21.92
2023-02-13T15:13:01.238Z,27.20
2023-02-13T15:15:22.193Z,28.67
2023-02-13T15:17:29.987Z,32.03
2023-02-13T15:19:32.852Z,27.73
2023-02-13T15:21:34.515Z,29.33
2023-02-13T15:23:36.272Z,27.65
2023-02-13T15:25:39.888Z,31.67
2023-02-13T15:27:43.548Z,36.05
2023-02-13T15:30:04.408Z,35.85
2023-02-13T15:32:18.439Z,35.75
2023-02-13T15:34:32.353Z,35.47
2023-02-13T15:36:39.763Z,34.30
2023-02-13T15:38:41.434Z,45.10
2023-02-13T15:40:44.021Z,49.05
2023-02-13T15:42:46.674Z,56.50
2023-02-13T15:44:51.294Z,45.88
2023-02-13T15:46:54.502Z,46.30
2023-02-13T15:48:58.948Z,44.78
2023-02-13T15:51:00.968Z,45.38
2023-02-13T15:53:05.191Z,51.10
2023-02-13T15:55:06.976Z,44.65
2023-02-13T15:57:11.454Z,46.25
2023-02-13T15:59:14.099Z,40.72
2023-02-13T16:01:17.043Z,41.95
2023-02-13T16:03:18.997Z,47.63
2023-02-13T16:05:37.508Z,37.40
2023-02-13T16:07:58.538Z,36.47
2023-02-13T16:10:29.400Z,30.90
2023-02-13T16:12:31.012Z,33.20
2023-02-13T16:14:36.817Z,31.95
2023-02-13T16:17:05.450Z,33.40
2023-02-13T16:19:07.067Z,27.92
2023-02-13T16:21:09.308Z,30.73
2023-02-13T16:23:17.267Z,33.20
2023-02-13T16:25:34.490Z,33.35
2023-02-13T16:27:36.598Z,32.20
2023-02-13T16:29:38.208Z,30.70
2023-02-13T16:31:40.719Z,31.02
2023-02-13T16:33:43.065Z,32.45
2023-02-13T16:35:55.384Z,29.90
2023-02-13T16:38:02.403Z,27.17
2023-02-13T16:40:32.321Z,29.33
2023-02-13T16:42:33.886Z,28.40
2023-02-13T16:44:35.523Z,32.13
2023-02-13T16:46:39.718Z,28.95
2023-02-13T16:48:56.556Z,30.63
2023-02-13T16:50:58.440Z,32.75
2023-02-13T16:53:02.613Z,27.85
2023-02-13T16:55:05.165Z,31.08
2023-02-13T16:57:33.750Z,30.63
2023-02-13T16:59:47.581Z,27.23
2023-02-13T17:02:02.241Z,31.90
2023-02-13T17:04:15.658Z,33.15
2023-02-13T17:06:17.249Z,32.60
2023-02-13T17:08:18.857Z,31.92
2023-02-13T17:10:20.532Z,31.65
2023-02-13T17:12:22.349Z,35.45
2023-02-13T17:14:23.999Z,31.42
2023-02-13T17:16:25.748Z,31.00
2023-02-13T17:18:27.792Z,31.77
2023-02-13T17:20:32.252Z,33.75
2023-02-13T17:22:39.540Z,34.20
2023-02-13T17:24:41.265Z,29.48
2023-02-13T17:26:42.958Z,32.45
2023-02-13T17:28:44.495Z,29.55
2023-02-13T17:30:47.062Z,29.13
2023-02-13T17:32:49.403Z,29.23
2023-02-13T17:34:51.151Z,35.75
2023-02-13T17:36:52.741Z,31.48
2023-02-13T17:38:54.353Z,32.25
2023-02-13T17:40:56.295Z,33.25
2023-02-13T17:42:59.232Z,31.73
2023-02-13T17:45:00.934Z,33.20
2023-02-13T17:47:02.738Z,30.85
2023-02-13T17:49:04.596Z,33.15
2023-02-13T17:51:06.333Z,31.02
2023-02-13T17:53:22.413Z,32.80
2023-02-13T17:55:26.134Z,31.02
2023-02-13T17:57:27.767Z,30.40
2023-02-13T17:59:29.329Z,31.30
2023-02-13T18:01:30.954Z,31.55
2023-02-13T18:03:32.555Z,29.55
2023-02-13T18:05:34.236Z,31.35
2023-02-13T18:07:36.231Z,28.92
2023-02-13T18:09:38.003Z,29.48
2023-02-13T18:11:39.578Z,30.27
2023-02-13T18:13:47.966Z,28.20
2023-02-13T18:15:49.595Z,37.42
2023-02-13T18:17:51.388Z,25.88
2023-02-13T18:19:53.140Z,31.17
2023-02-13T18:21:54.714Z,30.83
2023-02-13T18:23:56.577Z,30.10
2023-02-13T18:26:05.943Z,27.23
2023-02-13T18:28:07.554Z,30.13
2023-02-13T18:30:11.153Z,30.27
2023-02-13T18:32:12.982Z,35.08
2023-02-13T18:34:33.430Z,30.85
2023-02-13T18:36:34.948Z,36.20
2023-02-13T18:38:36.534Z,32.15
2023-02-13T18:40:38.139Z,29.30
2023-02-13T18:42:39.787Z,29.92
2023-02-13T18:44:41.788Z,32.72
2023-02-13T18:46:43.681Z,26.10
2023-02-13T18:48:45.261Z,28.83
2023-02-13T18:50:46.841Z,28.88
2023-02-13T18:52:48.498Z,28.25
2023-02-13T18:54:50.279Z,26.92
2023-02-13T18:56:52.173Z,25.60
2023-02-13T18:58:53.894Z,29.15
2023-02-13T19:00:55.806Z,30.73
2023-02-13T19:02:59.011Z,27.85
2023-02-13T19:05:01.288Z,28.02
2023-02-13T19:07:02.927Z,24.05
2023-02-13T19:09:04.591Z,24.30
2023-02-13T19:11:08.292Z,24.88
2023-02-13T19:13:09.894Z,26.50
2023-02-13T19:15:11.592Z,28.50
2023-02-13T19:17:13.210Z,27.35
2023-02-13T19:19:14.826Z,24.50
2023-02-13T19:21:16.648Z,26.88
2023-02-13T19:23:18.252Z,28.98
2023-02-13T19:25:20.074Z,28.63
2023-02-13T19:27:21.669Z,28.45
2023-02-13T19:29:23.408Z,28.35
2023-02-13T19:31:30.703Z,27.48
2023-02-13T19:33:32.738Z,27.58
2023-02-13T19:35:34.388Z,25.00
2023-02-13T19:37:43.875Z,26.55
2023-02-13T19:39:46.086Z,24.95
2023-02-13T19:41:47.713Z,24.60
2023-02-13T19:43:56.077Z,26.88
2023-02-13T19:45:57.696Z,26.38
2023-02-13T19:47:59.353Z,28.05
2023-02-13T19:50:00.903Z,26.73
2023-02-13T19:52:03.696Z,25.13
2023-02-13T19:54:07.182Z,25.85
2023-02-13T19:56:09.527Z,27.92
2023-02-13T19:58:11.138Z,26.92
2023-02-13T20:00:13.391Z,28.17
2023-02-13T20:02:15.544Z,28.00
2023-02-13T20:04:17.191Z,22.42
2023-02-13T20:06:24.926Z,27.02
2023-02-13T20:08:26.513Z,25.00
2023-02-13T20:10:28.075Z,24.08
2023-02-13T20:12:29.717Z,22.92
2023-02-13T20:14:31.285Z,25.38
2023-02-13T20:16:35.464Z,24.25
2023-02-13T20:18:37.886Z,22.83
2023-02-13T20:20:39.925Z,20.23
2023-02-13T20:22:41.539Z,23.73
2023-02-13T20:24:43.527Z,21.60
2023-02-13T20:26:45.146Z,22.35
2023-02-13T20:28:48.107Z,32.90
2023-02-13T20:30:49.935Z,22.50
2023-02-13T20:32:51.550Z,20.73
2023-02-13T20:34:59.877Z,22.50
2023-02-13T20:37:01.877Z,21.85
2023-02-13T20:39:06.135Z,21.25
2023-02-13T20:41:12.103Z,21.77
2023-02-13T20:43:13.700Z,22.05
2023-02-13T20:45:15.451Z,22.13
2023-02-13T20:47:17.180Z,21.70
2023-02-13T20:49:21.919Z,21.40
2023-02-13T20:51:23.678Z,22.50
2023-02-13T20:53:25.704Z,22.27
2023-02-13T20:55:27.280Z,21.95
2023-02-13T20:57:28.903Z,22.25
2023-02-13T20:59:30.552Z,28.73
2023-02-13T21:01:35.638Z,21.60
2023-02-13T21:03:37.296Z,21.95
2023-02-13T21:05:38.910Z,19.92
2023-02-13T21:07:40.660Z,25.17
2023-02-13T21:09:42.315Z,25.67
2023-02-13T21:11:44.724Z,22.50
2023-02-13T21:13:46.816Z,23.70
2023-02-13T21:15:50.602Z,23.38
2023-02-13T21:17:52.276Z,22.27
2023-02-13T21:19:53.872Z,25.13
2023-02-13T21:21:55.434Z,21.40
2023-02-13T21:23:59.570Z,24.60
2023-02-13T21:26:05.621Z,22.70
2023-02-13T21:28:07.353Z,24.17
2023-02-13T21:30:09.524Z,22.95
2023-02-13T21:32:11.281Z,24.67
2023-02-13T21:34:13.834Z,22.60
2023-02-13T21:36:15.730Z,23.92
2023-02-13T21:38:19.411Z,21.98
2023-02-13T21:40:21.259Z,22.95
2023-02-13T21:42:22.879Z,24.85
2023-02-13T21:44:24.683Z,22.83
2023-02-13T21:46:28.896Z,24.27
2023-02-13T21:48:30.460Z,23.17
2023-02-13T21:50:32.553Z,22.73
2023-02-13T21:52:35.284Z,25.92
2023-02-13T21:54:37.100Z,24.35
2023-02-13T21:56:40.416Z,23.45
2023-02-13T21:58:43.105Z,26.08
2023-02-13T22:00:44.714Z,23.83
2023-02-13T22:02:46.259Z,22.88
2023-02-13T22:04:47.833Z,22.73
2023-02-13T22:06:51.416Z,23.98
2023-02-13T22:09:01.510Z,24.90
2023-02-13T22:11:03.197Z,20.98
2023-02-13T22:13:04.896Z,23.90
2023-02-13T22:15:06.708Z,24.20
2023-02-13T22:17:08.584Z,22.17
2023-02-13T22:19:13.624Z,24.63
2023-02-13T22:21:18.556Z,23.60
2023-02-13T22:23:20.408Z,23.27
2023-02-13T22:25:22.174Z,23.02
2023-02-13T22:27:23.816Z,20.48
2023-02-13T22:29:27.054Z,25.92
2023-02-13T22:31:28.815Z,23.58
2023-02-13T22:33:30.427Z,21.63
2023-02-13T22:35:32.050Z,23.95
2023-02-13T22:37:34.205Z,24.10
2023-02-13T22:39:35.826Z,23.73
2023-02-13T22:41:37.909Z,27.58
2023-02-13T22:43:39.633Z,25.75
2023-02-13T22:45:41.278Z,26.30
2023-02-13T22:47:42.901Z,27.70
2023-02-13T22:49:44.500Z,23.60
2023-02-13T22:51:46.096Z,24.15
2023-02-13T22:53:48.561Z,27.60
2023-02-13T22:55:50.280Z,25.60
2023-02-13T22:57:54.429Z,29.38
2023-02-13T22:59:56.345Z,23.42
2023-02-13T23:01:57.919Z,25.95
2023-02-13T23:04:00.029Z,24.27
2023-02-13T23:06:04.014Z,23.25
2023-02-13T23:10:07.724Z,23.00
2023-02-13T23:12:27.754Z,23.00
2023-02-13T23:14:29.381Z,23.50
2023-02-13T23:16:54.040Z,25.75
2023-02-13T23:21:04.571Z,23.65
2023-02-13T23:23:06.184Z,24.38
2023-02-13T23:25:07.948Z,21.25
2023-02-13T23:27:09.591Z,20.20
2023-02-13T23:29:11.272Z,24.48
2023-02-13T23:31:12.923Z,24.55
2023-02-13T23:33:14.611Z,23.65
2023-02-13T23:35:16.806Z,22.25
2023-02-13T23:37:18.383Z,24.52
2023-02-13T23:39:21.094Z,23.92
2023-02-13T23:41:22.888Z,19.02
2023-02-13T23:43:24.546Z,22.30
2023-02-13T23:45:26.095Z,23.92
2023-02-13T23:47:27.772Z,22.50
2023-02-13T23:49:29.427Z,22.73
2023-02-13T23:51:31.018Z,24.98
2023-02-13T23:53:35.673Z,24.42
2023-02-13T23:55:37.290Z,25.58
2023-02-13T23:57:38.935Z,21.55
2023-02-13T23:59:40.759Z,24.25
